Terminal Aerodrome Forecast
Issued by NWS

Home | Current Version | Previous Version | Graphics & Text | Print | Product List | Glossary On
Versions: 1 2 3 4 5 6 7 8 9 10 11 12 13 14 15 16 17 18 19 20 21 22 23 24 25
000
FTUS43 KGRB 270100 AAA
TAFATW
TAF AMD
KATW 270101Z 2701/2724 35007KT 5SM BR SCT004 OVC022
      TEMPO 2701/2705 BKN004
     FM270900 02005KT 5SM -RASN BR BKN005 BKN012
     FM271400 03005KT 2SM -RASN BR OVC009
     FM271600 35007KT 1 1/2SM -SN BKN010
     FM271900 29011G15KT 5SM -SN BKN016
     FM272100 29008KT P6SM SCT016 BKN070=

USA.gov is the U.S. government's official web portal to all federal, state and local government web resources and services.